METAR Formatted Surface Weather Observation
Issued by NWS

Home | Current Version | Previous Version | Text Only | Print | Product List | Glossary On
Versions: 1 2 3 4 5 6 7 8 9 10 11 12 13 14 15 16 17 18 19 20 21 22
174
SAUS41 KBOX 170103 COR
MTRMQE
METAR KMQE 170056Z AUTO 10013G25KT 12/11 A2960 RMK AO1 PK WND
09028/0034 SLP034 T01220111



USA.gov is the U.S. government's official web portal to all federal, state and local government web resources and services.
  • National Weather Service
  • El Paso, TX Weather Forecast Office
  • 7955 Airport Rd
  • Santa Teresa, NM 88008
  • (575) 589-4088
  • Page Author: EPZ Webmaster
  • Web Master's E-mail: sr-epz.webmaster@noaa.gov
  • Page last modified: Apr 16th, 2019 21:10 UTC